createdAt,value
2019-04-01T00:04:44.386Z,13.30
2019-04-01T00:09:51.509Z,10.27
2019-04-01T00:15:00.331Z,10.67
2019-04-01T00:20:08.405Z,10.40
2019-04-01T00:25:15.479Z,11.63
2019-04-01T00:30:22.588Z,15.70
2019-04-01T00:35:29.713Z,9.07
2019-04-01T00:40:37.440Z,12.07
2019-04-01T00:45:46.454Z,10.07
2019-04-01T00:50:53.729Z,7.23
2019-04-01T00:56:00.924Z,7.20
2019-04-01T01:01:08.229Z,7.67
2019-04-01T01:06:15.894Z,9.23
2019-04-01T01:11:23.903Z,7.47
2019-04-01T01:16:31.222Z,6.65
2019-04-01T01:21:38.810Z,29.77
2019-04-01T01:26:45.967Z,21.43
2019-04-01T01:31:53.068Z,13.23
2019-04-01T01:37:00.287Z,14.00
2019-04-01T01:42:07.611Z,10.30
2019-04-01T01:47:14.795Z,8.03
2019-04-01T01:52:21.920Z,8.85
2019-04-01T01:57:29.210Z,6.73
2019-04-01T02:02:36.423Z,8.80
2019-04-01T02:07:45.521Z,13.27
2019-04-01T02:12:52.752Z,11.47
2019-04-01T02:17:59.958Z,8.20
2019-04-01T02:23:07.186Z,12.60
2019-04-01T02:28:14.589Z,10.98
2019-04-01T02:33:21.848Z,13.50
2019-04-01T02:38:29.049Z,12.43
2019-04-01T02:43:37.126Z,10.00
2019-04-01T02:48:44.376Z,10.03
2019-04-01T02:53:51.780Z,15.43
2019-04-01T02:58:59.040Z,15.63
2019-04-01T03:04:06.257Z,19.50
2019-04-01T03:09:13.395Z,19.17
2019-04-01T03:14:20.629Z,20.27
2019-04-01T03:19:27.896Z,18.30
2019-04-01T03:24:35.613Z,15.40
2019-04-01T03:29:43.843Z,21.70
2019-04-01T03:34:50.943Z,23.20
2019-04-01T03:39:58.080Z,36.33
2019-04-01T03:45:06.864Z,33.93
2019-04-01T03:50:14.181Z,33.00
2019-04-01T03:55:21.575Z,41.48
2019-04-01T04:00:28.705Z,50.27
2019-04-01T04:05:36.744Z,56.10
2019-04-01T04:10:55.398Z,61.40
2019-04-01T04:16:03.703Z,68.50
2019-04-01T04:21:13.075Z,48.03
2019-04-01T04:26:21.645Z,63.63
2019-04-01T04:31:28.853Z,48.80
2019-04-01T04:36:36.987Z,31.75
2019-04-01T04:41:44.175Z,17.80
2019-04-01T04:46:52.132Z,22.03
2019-04-01T04:51:59.401Z,25.00
2019-04-01T04:57:09.094Z,21.13
2019-04-01T05:02:16.826Z,16.45
2019-04-01T05:07:25.134Z,24.87
2019-04-01T05:12:32.340Z,16.30
2019-04-01T05:17:41.061Z,11.43
2019-04-01T05:22:50.074Z,21.20
2019-04-01T05:27:59.616Z,18.90
2019-04-01T05:33:06.714Z,31.90
2019-04-01T05:38:13.768Z,41.50
2019-04-01T05:43:20.916Z,66.37
2019-04-01T05:48:30.779Z,72.00
2019-04-01T05:53:37.909Z,55.30
2019-04-01T05:58:45.084Z,45.37
2019-04-01T06:03:52.629Z,28.30
2019-04-01T06:09:00.749Z,21.43
2019-04-01T06:14:08.358Z,21.90
2019-04-01T06:19:15.575Z,12.27
2019-04-01T06:24:24.702Z,11.10
2019-04-01T06:29:32.107Z,8.97
2019-04-01T06:34:52.342Z,8.53
2019-04-01T06:39:48.411Z,12.90
2019-04-01T06:44:55.824Z,10.33
2019-04-01T06:50:03.143Z,13.13
2019-04-01T06:55:10.503Z,10.40
2019-04-01T07:00:18.288Z,9.33
2019-04-01T07:05:26.141Z,19.47
2019-04-01T07:10:36.217Z,12.30
2019-04-01T07:15:43.517Z,9.23
2019-04-01T07:20:50.703Z,18.27
2019-04-01T07:25:57.884Z,17.87
2019-04-01T07:31:06.130Z,10.77
2019-04-01T07:36:13.412Z,17.57
2019-04-01T07:41:20.551Z,12.80
2019-04-01T07:46:27.660Z,10.47
2019-04-01T07:51:38.317Z,10.00
2019-04-01T07:56:43.561Z,24.53
2019-04-01T08:01:52.817Z,25.47
2019-04-01T08:06:59.497Z,11.07
2019-04-01T08:12:06.839Z,9.87
2019-04-01T08:17:14.122Z,7.30
2019-04-01T08:22:21.357Z,7.23
2019-04-01T08:27:29.090Z,10.80
2019-04-01T08:32:36.615Z,4.87
2019-04-01T08:37:43.931Z,8.40
2019-04-01T08:42:51.795Z,6.67
2019-04-01T08:47:59.244Z,6.00
2019-04-01T08:53:06.344Z,10.20
2019-04-01T08:58:13.450Z,6.27
2019-04-01T09:03:20.783Z,7.33
2019-04-01T09:08:28.418Z,3.13
2019-04-01T09:13:35.619Z,1.90
2019-04-01T09:18:42.715Z,2.57
2019-04-01T09:23:52.279Z,2.73
2019-04-01T09:28:59.937Z,6.73
2019-04-01T09:34:07.028Z,4.30
2019-04-01T09:39:14.591Z,6.00
2019-04-01T09:44:35.671Z,3.77
2019-04-01T09:49:30.366Z,1.83
2019-04-01T09:54:37.550Z,3.50
2019-04-01T09:59:44.633Z,5.07
2019-04-01T10:04:51.723Z,5.27
2019-04-01T10:09:59.581Z,11.17
2019-04-01T10:15:08.547Z,5.13
2019-04-01T10:20:16.023Z,5.03
2019-04-01T10:25:23.146Z,7.30
2019-04-01T10:30:30.345Z,14.57
2019-04-01T10:35:37.525Z,7.87
2019-04-01T10:40:46.074Z,4.20
2019-04-01T10:45:53.178Z,3.60
2019-04-01T10:51:00.602Z,23.97
2019-04-01T10:56:08.684Z,8.40
2019-04-01T11:01:15.681Z,7.35
2019-04-01T11:06:22.869Z,10.32
2019-04-01T11:11:29.953Z,5.67
2019-04-01T11:16:37.010Z,17.27
2019-04-01T11:21:44.110Z,5.63
2019-04-01T11:26:51.210Z,4.47
2019-04-01T11:31:59.273Z,5.33
2019-04-01T11:37:07.916Z,2.93
2019-04-01T11:42:15.373Z,10.67
2019-04-01T11:47:22.556Z,5.13
2019-04-01T11:52:31.215Z,7.87
2019-04-01T11:57:38.485Z,11.10
2019-04-01T12:02:46.328Z,4.93
2019-04-01T12:07:54.718Z,12.23
2019-04-01T12:13:01.806Z,2.93
2019-04-01T12:18:08.913Z,8.77
2019-04-01T12:23:16.093Z,3.50
2019-04-01T12:28:23.179Z,6.20
2019-04-01T12:33:30.520Z,4.50
2019-04-01T12:38:37.677Z,13.23
2019-04-01T12:43:44.876Z,17.17
2019-04-01T12:48:52.073Z,40.58
2019-04-01T12:53:59.127Z,6.33
2019-04-01T12:59:06.218Z,8.03
2019-04-01T13:04:13.389Z,29.85
2019-04-01T13:09:21.360Z,12.53
2019-04-01T13:14:29.281Z,4.12
2019-04-01T13:19:36.384Z,24.27
2019-04-01T13:24:43.476Z,18.60
2019-04-01T13:29:50.693Z,5.47
2019-04-01T13:34:57.851Z,14.30
2019-04-01T13:40:06.799Z,7.85
2019-04-01T13:45:14.433Z,6.30
2019-04-01T13:50:21.507Z,11.20
2019-04-01T13:55:28.604Z,12.35
2019-04-01T14:00:36.088Z,3.65
2019-04-01T14:05:43.276Z,6.37
2019-04-01T14:10:50.339Z,4.30
2019-04-01T14:15:57.423Z,16.95
2019-04-01T14:21:15.860Z,7.15
2019-04-01T14:26:13.543Z,8.63
2019-04-01T14:31:21.841Z,2.07
2019-04-01T14:36:29.013Z,15.88
2019-04-01T14:41:37.203Z,2.77
2019-04-01T14:46:44.418Z,11.33
2019-04-01T14:51:51.964Z,7.08
2019-04-01T14:56:59.011Z,15.40
2019-04-01T15:02:06.247Z,12.75
2019-04-01T15:07:15.154Z,13.58
2019-04-01T15:12:22.133Z,13.85
2019-04-01T15:17:29.231Z,20.50
2019-04-01T15:22:36.361Z,8.03
2019-04-01T15:27:43.363Z,5.07
2019-04-01T15:32:52.123Z,3.42
2019-04-01T15:37:59.494Z,23.25
2019-04-01T15:43:06.889Z,10.53
2019-04-01T15:48:14.007Z,10.83
2019-04-01T15:53:23.471Z,8.70
2019-04-01T15:58:30.086Z,11.97
2019-04-01T16:03:37.154Z,11.80
2019-04-01T16:08:45.526Z,12.07
2019-04-01T16:13:52.852Z,20.53
2019-04-01T16:19:00.527Z,7.07
2019-04-01T16:24:10.985Z,22.83
2019-04-01T16:29:17.291Z,13.60
2019-04-01T16:34:24.482Z,11.63
2019-04-01T16:39:31.597Z,8.27
2019-04-01T16:44:38.953Z,17.47
2019-04-01T16:49:46.314Z,21.00
2019-04-01T16:55:01.426Z,19.93
2019-04-01T17:00:09.998Z,42.10
2019-04-01T17:05:20.026Z,54.83
2019-04-01T17:10:27.325Z,79.33
2019-04-01T17:15:34.457Z,57.63
2019-04-01T17:20:41.559Z,58.77
2019-04-01T17:25:48.772Z,111.80
2019-04-01T17:30:59.523Z,90.17
2019-04-01T17:36:06.870Z,64.67
2019-04-01T17:41:13.917Z,68.20
2019-04-01T17:46:21.056Z,65.17
2019-04-01T17:51:28.146Z,62.30
2019-04-01T17:56:35.221Z,36.20
2019-04-01T18:01:42.512Z,24.97
2019-04-01T18:06:49.702Z,30.40
2019-04-01T18:11:56.855Z,51.77
2019-04-01T18:17:04.023Z,59.40
2019-04-01T18:22:11.130Z,81.13
2019-04-01T18:27:18.870Z,97.87
2019-04-01T18:32:26.044Z,90.93
2019-04-01T18:37:33.172Z,99.57
2019-04-01T18:42:40.286Z,85.83
2019-04-01T18:47:47.835Z,87.93
2019-04-01T18:52:55.035Z,182.13
2019-04-01T18:58:02.441Z,117.77
2019-04-01T19:03:10.604Z,116.80
2019-04-01T19:08:18.099Z,189.60
2019-04-01T19:13:25.285Z,218.47
2019-04-01T19:18:32.473Z,259.40
2019-04-01T19:23:39.662Z,160.17
2019-04-01T19:28:47.238Z,259.40
2019-04-01T19:33:54.790Z,375.37
2019-04-01T19:39:02.408Z,365.17
2019-04-01T19:44:11.092Z,163.30
2019-04-01T19:49:18.397Z,100.15
2019-04-01T19:54:31.246Z,87.33
2019-04-01T19:59:35.713Z,86.73
2019-04-01T20:04:44.126Z,56.43
2019-04-01T20:09:51.251Z,75.33
2019-04-01T20:14:58.940Z,72.83
2019-04-01T20:20:07.550Z,77.50
2019-04-01T20:25:16.906Z,74.77
2019-04-01T20:30:25.567Z,50.27
2019-04-01T20:35:34.508Z,41.77
2019-04-01T20:40:41.454Z,45.53
2019-04-01T20:45:48.738Z,68.90
2019-04-01T20:50:57.162Z,50.50
2019-04-01T20:56:04.743Z,42.93
2019-04-01T21:01:11.860Z,39.25
2019-04-01T21:06:18.974Z,42.85
2019-04-01T21:11:26.185Z,41.30
2019-04-01T21:16:33.271Z,31.97
2019-04-01T21:21:41.076Z,31.60
2019-04-01T21:26:48.345Z,36.00
2019-04-01T21:31:55.747Z,32.80
2019-04-01T21:37:03.417Z,33.33
2019-04-01T21:42:11.693Z,33.13
2019-04-01T21:47:19.193Z,44.83
2019-04-01T21:52:26.252Z,43.93
2019-04-01T21:57:33.421Z,32.07
2019-04-01T22:02:40.674Z,37.70
2019-04-01T22:07:47.727Z,52.07
2019-04-01T22:12:56.250Z,41.83
2019-04-01T22:18:03.489Z,63.27
2019-04-01T22:23:10.682Z,63.80
2019-04-01T22:28:19.249Z,89.87
2019-04-01T22:33:27.881Z,110.00
2019-04-01T22:38:35.585Z,66.50
2019-04-01T22:43:42.881Z,61.47
2019-04-01T22:48:50.097Z,73.80
2019-04-01T22:53:57.165Z,52.60
2019-04-01T22:59:04.455Z,60.93
2019-04-01T23:04:11.574Z,69.50
2019-04-01T23:09:18.584Z,69.07
2019-04-01T23:14:25.756Z,55.27
2019-04-01T23:19:34.253Z,43.03
2019-04-01T23:24:42.581Z,65.50
2019-04-01T23:29:51.100Z,67.78
2019-04-01T23:34:58.323Z,57.90
2019-04-01T23:40:06.792Z,61.97
2019-04-01T23:45:13.950Z,130.03
2019-04-01T23:50:21.139Z,58.73
2019-04-01T23:55:29.186Z,55.53
